createdAt,value
2016-07-31T00:00:06.149Z,19.49
2016-07-31T00:01:06.164Z,19.52
2016-07-31T00:02:06.153Z,19.59
2016-07-31T00:03:06.157Z,19.59
2016-07-31T00:04:06.156Z,19.56
2016-07-31T00:05:06.156Z,19.62
2016-07-31T00:06:06.161Z,19.59
2016-07-31T00:07:06.161Z,19.62
2016-07-31T00:08:06.165Z,19.55
2016-07-31T00:09:06.181Z,19.53
2016-07-31T00:10:06.169Z,19.62
2016-07-31T00:11:06.169Z,19.64
2016-07-31T00:12:06.317Z,19.57
2016-07-31T00:13:06.173Z,19.62
2016-07-31T00:14:06.174Z,19.57
2016-07-31T00:15:06.173Z,19.52
2016-07-31T00:16:06.177Z,19.56
2016-07-31T00:17:06.177Z,19.53
2016-07-31T00:18:06.185Z,19.59
2016-07-31T00:19:06.182Z,19.57
2016-07-31T00:20:06.181Z,19.53
2016-07-31T00:21:06.181Z,19.55
2016-07-31T00:22:06.185Z,19.62
2016-07-31T00:23:06.186Z,19.52
2016-07-31T00:24:06.189Z,19.42
2016-07-31T00:25:06.189Z,19.45
2016-07-31T00:26:06.189Z,19.47
2016-07-31T00:27:06.194Z,19.48
2016-07-31T00:28:05.733Z,19.39
2016-07-31T00:29:05.490Z,19.38
2016-07-31T00:30:06.206Z,19.26
2016-07-31T00:31:06.198Z,19.27
2016-07-31T00:32:06.198Z,19.34
2016-07-31T00:33:06.202Z,19.24
2016-07-31T00:34:06.202Z,19.23
2016-07-31T00:35:06.211Z,19.23
2016-07-31T00:36:06.210Z,19.2
2016-07-31T00:37:06.206Z,19.15
2016-07-31T00:38:06.211Z,19.19
2016-07-31T00:39:06.215Z,19.23
2016-07-31T00:40:06.210Z,19.15
2016-07-31T00:41:06.214Z,19.12
2016-07-31T00:42:06.215Z,19.12
2016-07-31T00:43:05.755Z,19.11
2016-07-31T00:44:06.226Z,19.08
2016-07-31T00:45:06.219Z,19.15
2016-07-31T00:46:05.519Z,19.09
2016-07-31T00:47:06.471Z,19
2016-07-31T00:48:06.222Z,19.01
2016-07-31T00:49:06.227Z,19.04
2016-07-31T00:50:06.227Z,19.09
2016-07-31T00:51:06.227Z,18.97
2016-07-31T00:52:06.231Z,18.88
2016-07-31T00:53:06.231Z,18.98
2016-07-31T00:54:06.231Z,18.92
2016-07-31T00:55:06.235Z,18.88
2016-07-31T00:56:06.235Z,18.98
2016-07-31T00:57:06.239Z,18.85
2016-07-31T00:58:05.319Z,18.78
2016-07-31T00:59:05.535Z,18.88
2016-07-31T01:00:06.244Z,18.82
2016-07-31T01:01:06.242Z,18.81
2016-07-31T01:02:06.244Z,18.82
2016-07-31T01:03:06.247Z,18.82
2016-07-31T01:04:06.247Z,18.79
2016-07-31T01:05:06.248Z,18.76
2016-07-31T01:06:06.251Z,18.66
2016-07-31T01:07:06.254Z,18.74
2016-07-31T01:08:06.255Z,18.68
2016-07-31T01:09:06.254Z,18.7
2016-07-31T01:10:06.263Z,18.74
2016-07-31T01:11:06.259Z,18.67
2016-07-31T01:12:06.259Z,18.67
2016-07-31T01:13:05.343Z,18.79
2016-07-31T01:14:06.263Z,18.68
2016-07-31T01:15:06.276Z,18.73
2016-07-31T01:16:06.267Z,18.71
2016-07-31T01:17:06.267Z,18.86
2016-07-31T01:18:06.266Z,18.7
2016-07-31T01:19:06.271Z,18.67
2016-07-31T01:20:06.272Z,18.71
2016-07-31T01:21:06.275Z,18.73
2016-07-31T01:22:05.572Z,18.68
2016-07-31T01:23:06.275Z,18.78
2016-07-31T01:24:06.283Z,18.78
2016-07-31T01:25:06.279Z,18.78
2016-07-31T01:26:06.279Z,18.78
2016-07-31T01:27:06.279Z,18.71
2016-07-31T01:28:05.364Z,18.85
2016-07-31T01:29:06.284Z,18.81
2016-07-31T01:30:06.287Z,18.66
2016-07-31T01:31:06.292Z,18.76
2016-07-31T01:32:06.288Z,18.71
2016-07-31T01:33:06.291Z,18.68
2016-07-31T01:34:06.292Z,18.78
2016-07-31T01:35:06.292Z,18.73
2016-07-31T01:36:06.295Z,18.64
2016-07-31T01:37:06.296Z,18.7
2016-07-31T01:38:06.296Z,18.71
2016-07-31T01:39:06.299Z,18.73
2016-07-31T01:40:06.301Z,18.71
2016-07-31T01:41:06.304Z,18.79
2016-07-31T01:42:06.312Z,18.82
2016-07-31T01:44:06.308Z,18.81
2016-07-31T01:45:06.314Z,18.79
2016-07-31T01:46:06.308Z,18.88
2016-07-31T01:47:06.312Z,18.91
2016-07-31T01:48:06.312Z,18.88
2016-07-31T01:49:06.316Z,18.91
2016-07-31T01:50:06.320Z,19.07
2016-07-31T01:51:06.317Z,18.98
2016-07-31T01:52:06.324Z,18.92
2016-07-31T01:53:06.320Z,19
2016-07-31T01:54:06.320Z,18.94
2016-07-31T01:55:06.321Z,18.92
2016-07-31T01:56:06.324Z,18.94
2016-07-31T01:57:06.329Z,18.92
2016-07-31T01:58:06.325Z,18.89
2016-07-31T01:59:06.329Z,18.89
2016-07-31T02:00:06.328Z,18.89
2016-07-31T02:01:06.330Z,18.96
2016-07-31T02:02:06.332Z,19
2016-07-31T02:03:06.333Z,18.94
2016-07-31T02:04:06.333Z,19.05
2016-07-31T02:05:06.338Z,19
2016-07-31T02:06:06.337Z,19.04
2016-07-31T02:07:06.337Z,19.09
2016-07-31T02:08:06.341Z,18.92
2016-07-31T02:09:06.342Z,19.01
2016-07-31T02:10:06.345Z,19
2016-07-31T02:11:06.345Z,18.94
2016-07-31T02:12:06.353Z,18.96
2016-07-31T02:13:06.355Z,18.86
2016-07-31T02:14:06.350Z,18.86
2016-07-31T02:15:06.349Z,18.88
2016-07-31T02:16:06.352Z,18.92
2016-07-31T02:17:06.353Z,18.89
2016-07-31T02:18:06.353Z,18.91
2016-07-31T02:19:06.357Z,18.94
2016-07-31T02:20:06.356Z,18.88
2016-07-31T02:21:06.357Z,18.92
2016-07-31T02:22:06.361Z,18.86
2016-07-31T02:23:06.362Z,18.82
2016-07-31T02:24:06.361Z,18.85
2016-07-31T02:25:06.365Z,18.91
2016-07-31T02:26:06.370Z,18.89
2016-07-31T02:27:06.368Z,18.88
2016-07-31T02:28:06.370Z,18.89
2016-07-31T02:29:06.369Z,18.85
2016-07-31T02:30:06.370Z,18.92
2016-07-31T02:31:06.378Z,18.89
2016-07-31T02:32:06.381Z,18.92
2016-07-31T02:33:06.373Z,19.04
2016-07-31T02:34:06.377Z,19.04
2016-07-31T02:35:06.377Z,19.09
2016-07-31T02:36:06.376Z,19.09
2016-07-31T02:37:06.381Z,19.19
2016-07-31T02:38:06.381Z,19.22
2016-07-31T02:39:06.381Z,19.27
2016-07-31T02:40:06.389Z,19.32
2016-07-31T02:41:06.385Z,19.23
2016-07-31T02:42:06.385Z,19.45
2016-07-31T02:43:06.402Z,19.42
2016-07-31T02:44:06.390Z,19.45
2016-07-31T02:45:06.401Z,19.45
2016-07-31T02:46:06.394Z,19.44
2016-07-31T02:47:06.394Z,19.47
2016-07-31T02:48:06.397Z,19.62
2016-07-31T02:49:06.398Z,19.52
2016-07-31T02:50:06.406Z,19.63
2016-07-31T02:51:06.402Z,19.7
2016-07-31T02:52:06.401Z,19.67
2016-07-31T02:53:06.402Z,19.71
2016-07-31T02:54:06.410Z,19.72
2016-07-31T02:55:06.406Z,19.84
2016-07-31T02:56:06.406Z,19.85
2016-07-31T02:57:06.409Z,19.87
2016-07-31T02:58:06.410Z,19.82
2016-07-31T02:59:06.409Z,19.99
2016-07-31T03:00:06.410Z,20
2016-07-31T03:01:06.414Z,20.08
2016-07-31T03:02:06.414Z,20.02
2016-07-31T03:03:05.714Z,20.11
2016-07-31T03:04:06.426Z,20.14
2016-07-31T03:05:06.418Z,20.11
2016-07-31T03:06:06.418Z,20.14
2016-07-31T03:07:06.434Z,20.18
2016-07-31T03:08:06.423Z,20.17
2016-07-31T03:09:06.422Z,20.21
2016-07-31T03:10:06.426Z,20.26
2016-07-31T03:11:06.427Z,20.19
2016-07-31T03:12:05.727Z,20.19
2016-07-31T03:13:06.430Z,20.24
2016-07-31T03:14:06.431Z,20.14
2016-07-31T03:15:06.430Z,20.12
2016-07-31T03:16:06.439Z,20.19
2016-07-31T03:17:05.730Z,20.11
2016-07-31T03:18:06.434Z,20.11
2016-07-31T03:19:06.451Z,20.11
2016-07-31T03:20:06.439Z,20.07
2016-07-31T03:21:06.438Z,20.08
2016-07-31T03:22:06.442Z,20.15
2016-07-31T03:23:06.443Z,20.11
2016-07-31T03:24:06.446Z,20.04
2016-07-31T03:25:06.446Z,20.03
2016-07-31T03:26:06.446Z,19.97
2016-07-31T03:27:06.446Z,19.94
2016-07-31T03:28:06.454Z,19.96
2016-07-31T03:29:06.450Z,19.92
2016-07-31T03:30:06.454Z,19.82
2016-07-31T03:31:06.454Z,19.87
2016-07-31T03:32:06.462Z,19.89
2016-07-31T03:33:06.454Z,19.87
2016-07-31T03:34:06.458Z,19.81
2016-07-31T03:35:06.458Z,19.74
2016-07-31T03:36:06.459Z,19.87
2016-07-31T03:37:06.463Z,19.79
2016-07-31T03:38:06.468Z,19.75
2016-07-31T03:39:06.471Z,19.7
2016-07-31T03:40:06.475Z,19.72
2016-07-31T03:41:06.478Z,19.7
2016-07-31T03:42:06.466Z,19.66
2016-07-31T03:43:06.470Z,19.75
2016-07-31T03:44:05.765Z,19.71
2016-07-31T03:45:06.475Z,19.71
2016-07-31T03:46:06.475Z,19.71
2016-07-31T03:47:06.474Z,19.67
2016-07-31T03:48:06.475Z,19.7
2016-07-31T03:49:06.479Z,19.72
2016-07-31T03:50:06.479Z,19.6
2016-07-31T03:51:06.478Z,19.71
2016-07-31T03:52:06.483Z,19.75
2016-07-31T03:53:06.487Z,19.7
2016-07-31T03:54:06.484Z,19.75
2016-07-31T03:55:06.491Z,19.66
2016-07-31T03:56:05.783Z,19.72
2016-07-31T03:57:06.488Z,19.84
2016-07-31T03:58:06.495Z,19.85
2016-07-31T03:59:06.491Z,19.92
2016-07-31T04:00:05.788Z,19.96
2016-07-31T04:01:06.495Z,20.1
2016-07-31T04:02:06.499Z,20.1
2016-07-31T04:03:06.499Z,20.14
2016-07-31T04:04:06.499Z,20.15
2016-07-31T04:05:06.499Z,20.14
2016-07-31T04:06:06.504Z,20.07
2016-07-31T04:07:06.504Z,20.07
2016-07-31T04:08:06.504Z,20
2016-07-31T04:09:06.511Z,20
2016-07-31T04:10:06.508Z,19.94
2016-07-31T04:11:06.508Z,19.9
2016-07-31T04:12:06.507Z,19.89
2016-07-31T04:13:06.517Z,19.94
2016-07-31T04:14:06.511Z,19.94
2016-07-31T04:15:06.520Z,19.99
2016-07-31T04:16:06.516Z,20.04
2016-07-31T04:17:06.516Z,20.07
2016-07-31T04:18:06.520Z,20
2016-07-31T04:19:06.520Z,19.93
2016-07-31T04:20:06.520Z,19.97
2016-07-31T04:21:06.524Z,20.03
2016-07-31T04:22:06.527Z,20.02
2016-07-31T04:23:06.523Z,20.02
2016-07-31T04:24:06.531Z,20.03
2016-07-31T04:25:06.527Z,20.14
2016-07-31T04:26:06.527Z,20.04
2016-07-31T04:27:06.544Z,20.11
2016-07-31T04:28:06.540Z,20.15
2016-07-31T04:29:06.532Z,20.15
2016-07-31T04:30:06.536Z,20.15
2016-07-31T04:31:06.536Z,20.12
2016-07-31T04:32:06.540Z,20.18
2016-07-31T04:33:06.540Z,20.11
2016-07-31T04:34:06.540Z,20.17
2016-07-31T04:35:06.540Z,20.12
2016-07-31T04:36:06.545Z,20.18
2016-07-31T04:37:06.545Z,20.19
2016-07-31T04:38:06.545Z,20.12
2016-07-31T04:39:06.549Z,20.19
2016-07-31T04:40:06.549Z,20.18
2016-07-31T04:41:06.553Z,20.22
2016-07-31T04:42:06.562Z,20.24
2016-07-31T04:43:06.553Z,20.33
2016-07-31T04:44:06.561Z,20.27
2016-07-31T04:45:06.557Z,20.34
2016-07-31T04:46:05.853Z,20.4
2016-07-31T04:47:06.565Z,20.4
2016-07-31T04:48:06.565Z,20.55
2016-07-31T04:49:06.561Z,20.52
2016-07-31T04:50:06.574Z,20.5
2016-07-31T04:51:06.566Z,20.52
2016-07-31T04:52:06.566Z,20.66
2016-07-31T04:53:06.577Z,20.55
2016-07-31T04:54:06.582Z,20.66
2016-07-31T04:55:06.569Z,20.68
2016-07-31T04:56:06.574Z,20.67
2016-07-31T04:57:05.870Z,20.59
2016-07-31T04:58:06.574Z,20.73
2016-07-31T04:59:06.585Z,20.64
2016-07-31T05:00:06.578Z,20.67
2016-07-31T05:01:06.578Z,20.68
2016-07-31T05:02:06.598Z,20.68
2016-07-31T05:03:06.581Z,20.63
2016-07-31T05:04:06.581Z,20.7
2016-07-31T05:05:05.882Z,20.71
2016-07-31T05:06:06.585Z,20.68
2016-07-31T05:07:06.586Z,20.73
2016-07-31T05:08:06.590Z,20.73
2016-07-31T05:09:06.589Z,20.7
2016-07-31T05:10:06.590Z,20.71
2016-07-31T05:11:06.594Z,20.67
2016-07-31T05:12:06.602Z,20.67
2016-07-31T05:13:05.898Z,20.6
2016-07-31T05:14:05.425Z,20.67
2016-07-31T05:15:06.598Z,20.63
2016-07-31T05:16:06.602Z,20.6
2016-07-31T05:17:06.605Z,20.59
2016-07-31T05:18:06.602Z,20.58
2016-07-31T05:19:06.602Z,20.6
2016-07-31T05:20:06.605Z,20.66
2016-07-31T05:21:06.606Z,20.64
2016-07-31T05:22:05.902Z,20.59
2016-07-31T05:23:06.613Z,20.56
2016-07-31T05:24:06.610Z,20.66
2016-07-31T05:25:06.609Z,20.58
2016-07-31T05:26:06.614Z,20.67
2016-07-31T05:27:06.613Z,20.6
2016-07-31T05:28:06.614Z,20.66
2016-07-31T05:30:06.633Z,20.59
2016-07-31T05:31:06.623Z,20.6
2016-07-31T05:32:06.622Z,20.68
2016-07-31T05:33:06.626Z,20.64
2016-07-31T05:34:06.626Z,20.7
2016-07-31T05:35:06.627Z,20.73
2016-07-31T05:36:06.626Z,20.77
2016-07-31T05:37:06.630Z,20.71
2016-07-31T05:38:06.630Z,20.75
2016-07-31T05:39:06.631Z,20.73
2016-07-31T05:40:06.634Z,20.83
2016-07-31T05:41:06.635Z,20.85
2016-07-31T05:42:06.636Z,20.9
2016-07-31T05:43:06.639Z,20.9
2016-07-31T05:44:06.638Z,20.93
2016-07-31T05:45:06.638Z,20.9
2016-07-31T05:46:06.638Z,20.88
2016-07-31T05:47:06.643Z,20.85
2016-07-31T05:48:06.643Z,21.01
2016-07-31T05:49:06.654Z,20.93
2016-07-31T05:50:06.648Z,20.92
2016-07-31T05:51:06.647Z,21.01
2016-07-31T05:52:06.651Z,21
2016-07-31T05:53:06.651Z,21.03
2016-07-31T05:54:06.655Z,21.03
2016-07-31T05:55:06.655Z,21.03
2016-07-31T05:56:06.659Z,21.1
2016-07-31T05:57:06.659Z,21.1
2016-07-31T05:58:06.671Z,21.08
2016-07-31T05:59:06.663Z,21.19
2016-07-31T06:00:05.960Z,21.25
2016-07-31T06:01:06.663Z,21.17
2016-07-31T06:02:06.667Z,21.26
2016-07-31T06:03:06.667Z,21.28
2016-07-31T06:04:06.667Z,21.26
2016-07-31T06:05:06.670Z,21.28
2016-07-31T06:06:06.673Z,21.25
2016-07-31T06:07:06.671Z,21.2
2016-07-31T06:08:06.676Z,21.19
2016-07-31T06:09:06.676Z,21.28
2016-07-31T06:10:06.680Z,21.22
2016-07-31T06:11:06.684Z,21.2
2016-07-31T06:12:06.684Z,21.26
2016-07-31T06:13:06.680Z,21.22
2016-07-31T06:14:05.981Z,21.22
2016-07-31T06:15:05.984Z,21.2
2016-07-31T06:16:06.685Z,21.23
2016-07-31T06:17:06.707Z,21.22
2016-07-31T06:18:06.687Z,21.17
2016-07-31T06:19:06.687Z,21.17
2016-07-31T06:20:06.693Z,21.25
2016-07-31T06:21:06.692Z,21.22
2016-07-31T06:22:06.696Z,21.29
2016-07-31T06:23:06.696Z,21.29
2016-07-31T06:24:06.696Z,21.32
2016-07-31T06:25:06.704Z,21.37
2016-07-31T06:26:06.712Z,21.41
2016-07-31T06:27:06.008Z,21.54
2016-07-31T06:28:07.004Z,21.62
2016-07-31T06:29:06.709Z,21.59
2016-07-31T06:30:06.705Z,21.7
2016-07-31T06:31:06.709Z,21.84
2016-07-31T06:32:06.709Z,21.85
2016-07-31T06:33:06.717Z,21.89
2016-07-31T06:34:06.712Z,21.97
2016-07-31T06:35:06.713Z,22.04
2016-07-31T06:36:06.717Z,22.06
2016-07-31T06:37:06.717Z,22.34
2016-07-31T06:38:06.721Z,22.41
2016-07-31T06:39:06.721Z,22.58
2016-07-31T06:40:06.721Z,22.63
2016-07-31T06:41:06.725Z,22.84
2016-07-31T06:42:06.726Z,23.08
2016-07-31T06:43:06.736Z,23.26
2016-07-31T06:44:06.729Z,23.44
2016-07-31T06:45:06.730Z,23.67
2016-07-31T06:46:06.733Z,23.85
2016-07-31T06:47:06.734Z,24.13
2016-07-31T06:48:06.734Z,24.25
2016-07-31T06:49:06.734Z,24.43
2016-07-31T06:50:06.737Z,24.53
2016-07-31T06:51:06.737Z,24.51
2016-07-31T06:52:06.738Z,24.65
2016-07-31T06:53:06.742Z,24.66
2016-07-31T06:54:06.746Z,24.65
2016-07-31T06:55:06.750Z,24.68
2016-07-31T06:56:06.746Z,24.58
2016-07-31T06:57:06.752Z,24.66
2016-07-31T06:58:06.758Z,24.66
2016-07-31T06:59:06.750Z,24.55
2016-07-31T07:00:06.755Z,24.63
2016-07-31T07:01:06.755Z,24.65
2016-07-31T07:02:06.754Z,24.66
2016-07-31T07:03:06.753Z,24.63
2016-07-31T07:04:06.757Z,24.63
2016-07-31T07:05:06.758Z,24.71
2016-07-31T07:06:06.762Z,24.71
2016-07-31T07:07:06.761Z,24.81
2016-07-31T07:08:06.762Z,24.77
2016-07-31T07:09:06.767Z,24.82
2016-07-31T07:10:06.766Z,24.92
2016-07-31T07:11:06.767Z,24.94
2016-07-31T07:12:06.780Z,25.18
2016-07-31T07:13:06.770Z,25.31
2016-07-31T07:14:06.783Z,25.44
2016-07-31T07:15:06.774Z,25.62
2016-07-31T07:16:06.781Z,25.78
2016-07-31T07:17:06.779Z,26.04
2016-07-31T07:18:06.779Z,26.15
2016-07-31T07:19:06.778Z,26.29
2016-07-31T07:20:07.183Z,26.36
2016-07-31T07:21:06.783Z,26.36
2016-07-31T07:22:06.787Z,26.37
2016-07-31T07:23:06.798Z,26.39
2016-07-31T07:24:06.787Z,26.36
2016-07-31T07:25:06.795Z,26.41
2016-07-31T07:26:06.790Z,26.36
2016-07-31T07:27:06.799Z,26.29
2016-07-31T07:28:06.795Z,26.24
2016-07-31T07:29:06.799Z,26.19
2016-07-31T07:30:06.800Z,26.06
2016-07-31T07:31:06.799Z,26.01
2016-07-31T07:32:06.803Z,25.93
2016-07-31T07:33:06.099Z,25.93
2016-07-31T07:34:06.808Z,25.89
2016-07-31T07:35:06.812Z,25.91
2016-07-31T07:36:06.808Z,25.88
2016-07-31T07:37:06.811Z,25.86
2016-07-31T07:38:06.823Z,25.83
2016-07-31T07:39:06.812Z,25.85
2016-07-31T07:40:06.816Z,25.85
2016-07-31T07:41:06.815Z,25.89
2016-07-31T07:42:06.820Z,25.81
2016-07-31T07:43:06.820Z,25.88
2016-07-31T07:44:06.830Z,25.92
2016-07-31T07:45:06.823Z,26.01
2016-07-31T07:46:06.828Z,26.13
2016-07-31T07:47:06.928Z,26.26
2016-07-31T07:48:06.827Z,26.39
2016-07-31T07:49:06.840Z,26.6
2016-07-31T07:50:06.836Z,26.74
2016-07-31T07:51:06.840Z,26.79
2016-07-31T07:52:06.835Z,26.93
2016-07-31T07:53:06.842Z,26.96
2016-07-31T07:54:06.839Z,26.93
2016-07-31T07:55:06.840Z,26.93
2016-07-31T07:56:06.843Z,26.83
2016-07-31T07:57:06.844Z,26.82
2016-07-31T07:58:06.853Z,26.71
2016-07-31T07:59:06.848Z,26.66
2016-07-31T08:00:06.848Z,26.6
2016-07-31T08:01:06.851Z,26.36
2016-07-31T08:02:06.852Z,26.31
2016-07-31T08:03:06.151Z,26.27
2016-07-31T08:04:06.856Z,26.1
2016-07-31T08:05:06.856Z,26.03
2016-07-31T08:06:06.860Z,25.88
2016-07-31T08:07:06.860Z,25.88
2016-07-31T08:08:06.865Z,25.7
2016-07-31T08:09:06.864Z,25.62
2016-07-31T08:10:06.869Z,25.55
2016-07-31T08:11:06.868Z,25.43
2016-07-31T08:12:06.868Z,25.44
2016-07-31T08:13:06.873Z,25.39
2016-07-31T08:14:06.872Z,25.39
2016-07-31T08:15:06.876Z,25.36
2016-07-31T08:16:06.877Z,25.33
2016-07-31T08:17:06.888Z,25.33
2016-07-31T08:18:06.880Z,25.34
2016-07-31T08:19:06.885Z,25.4
2016-07-31T08:20:06.893Z,25.36
2016-07-31T08:21:06.885Z,25.37
2016-07-31T08:22:06.185Z,25.43
2016-07-31T08:23:06.896Z,25.37
2016-07-31T08:24:06.893Z,25.4
2016-07-31T08:25:06.892Z,25.34
2016-07-31T08:26:06.897Z,25.26
2016-07-31T08:27:06.897Z,25.26
2016-07-31T08:28:06.898Z,25.24
2016-07-31T08:29:06.900Z,25.36
2016-07-31T08:30:06.900Z,25.3
2016-07-31T08:31:06.904Z,25.36
2016-07-31T08:32:06.912Z,25.34
2016-07-31T08:33:06.907Z,25.49
2016-07-31T08:34:06.908Z,25.54
2016-07-31T08:35:06.909Z,25.49
2016-07-31T08:36:06.912Z,25.62
2016-07-31T08:37:06.920Z,25.56
2016-07-31T08:38:06.924Z,25.61
2016-07-31T08:39:06.917Z,25.51
2016-07-31T08:40:06.924Z,25.48
2016-07-31T08:41:06.922Z,25.41
2016-07-31T08:42:06.924Z,25.31
2016-07-31T08:43:06.926Z,25.34
2016-07-31T08:44:06.929Z,25.3
2016-07-31T08:45:06.225Z,25.19
2016-07-31T08:46:06.941Z,25.07
2016-07-31T08:47:06.933Z,25.03
2016-07-31T08:48:06.937Z,24.93
2016-07-31T08:49:06.936Z,24.79
2016-07-31T08:50:06.937Z,24.78
2016-07-31T08:51:06.940Z,24.65
2016-07-31T08:52:06.944Z,24.59
2016-07-31T08:53:06.945Z,24.55
2016-07-31T08:54:06.945Z,24.56
2016-07-31T08:55:06.949Z,24.53
2016-07-31T08:56:06.949Z,24.62
2016-07-31T08:57:06.953Z,24.4
2016-07-31T08:58:06.953Z,24.43
2016-07-31T08:59:06.957Z,24.36
2016-07-31T09:00:06.969Z,24.38
2016-07-31T09:01:06.958Z,24.4
2016-07-31T09:02:06.962Z,24.4
2016-07-31T09:03:06.965Z,24.38
2016-07-31T09:04:06.966Z,24.4
2016-07-31T09:05:06.970Z,24.36
2016-07-31T09:06:06.970Z,24.29
2016-07-31T09:07:06.974Z,24.11
2016-07-31T09:08:06.973Z,24.14
2016-07-31T09:09:06.982Z,24.03
2016-07-31T09:10:06.978Z,23.99
2016-07-31T09:11:06.978Z,23.85
2016-07-31T09:12:06.982Z,23.89
2016-07-31T09:13:06.994Z,23.74
2016-07-31T09:14:06.985Z,23.71
2016-07-31T09:15:06.986Z,23.59
2016-07-31T09:16:06.990Z,23.45
2016-07-31T09:17:06.991Z,23.37
2016-07-31T09:18:06.994Z,23.18
2016-07-31T09:19:06.994Z,22.99
2016-07-31T09:20:06.999Z,22.88
2016-07-31T09:21:06.998Z,22.73
2016-07-31T09:22:06.998Z,22.53
2016-07-31T09:23:07.003Z,22.37
2016-07-31T09:24:07.014Z,22.21
2016-07-31T09:25:07.006Z,22.12
2016-07-31T09:26:07.010Z,22
2016-07-31T09:27:07.010Z,21.91
2016-07-31T09:28:07.018Z,21.91
2016-07-31T09:29:07.014Z,21.81
2016-07-31T09:30:07.023Z,21.68
2016-07-31T09:31:07.018Z,21.68
2016-07-31T09:32:07.018Z,21.68
2016-07-31T09:33:07.023Z,21.68
2016-07-31T09:34:07.023Z,21.72
2016-07-31T09:35:07.039Z,21.6
2016-07-31T09:36:07.027Z,21.62
2016-07-31T09:37:07.030Z,21.51
2016-07-31T09:38:07.039Z,21.51
2016-07-31T09:39:07.034Z,21.4
2016-07-31T09:40:07.034Z,21.33
2016-07-31T09:41:07.035Z,21.32
2016-07-31T09:42:07.039Z,21.32
2016-07-31T09:43:07.039Z,21.29
2016-07-31T09:44:07.042Z,21.29
2016-07-31T09:45:05.871Z,21.26
2016-07-31T09:46:07.047Z,21.28
2016-07-31T09:47:07.050Z,21.25
2016-07-31T09:48:07.051Z,21.29
2016-07-31T09:49:07.051Z,21.26
2016-07-31T09:50:07.055Z,21.26
2016-07-31T09:51:07.055Z,21.32
2016-07-31T09:52:07.058Z,21.23
2016-07-31T09:53:07.059Z,21.29
2016-07-31T09:54:07.062Z,21.37
2016-07-31T09:55:07.063Z,21.3
2016-07-31T09:56:07.064Z,21.33
2016-07-31T09:57:06.364Z,21.4
2016-07-31T09:58:07.067Z,21.4
2016-07-31T09:59:07.071Z,21.45
2016-07-31T10:01:07.075Z,21.56
2016-07-31T10:02:07.075Z,21.77
2016-07-31T10:03:07.088Z,21.89
2016-07-31T10:04:07.079Z,22.03
2016-07-31T10:05:07.088Z,22.16
2016-07-31T10:06:07.084Z,22.49
2016-07-31T10:07:07.084Z,22.7
2016-07-31T10:08:07.087Z,22.88
2016-07-31T10:09:07.088Z,23.07
2016-07-31T10:10:07.104Z,23.26
2016-07-31T10:11:07.091Z,23.54
2016-07-31T10:12:07.095Z,23.67
2016-07-31T10:13:07.096Z,23.85
2016-07-31T10:14:07.098Z,24.21
2016-07-31T10:15:07.100Z,24.34
2016-07-31T10:16:07.104Z,24.55
2016-07-31T10:17:07.104Z,24.71
2016-07-31T10:18:07.112Z,24.89
2016-07-31T10:19:06.403Z,24.93
2016-07-31T10:20:07.107Z,25.18
2016-07-31T10:21:07.112Z,25.25
2016-07-31T10:22:07.112Z,25.39
2016-07-31T10:23:07.116Z,25.39
2016-07-31T10:24:07.116Z,25.49
2016-07-31T10:25:07.116Z,25.61
2016-07-31T10:26:07.124Z,25.74
2016-07-31T10:27:07.121Z,25.71
2016-07-31T10:28:07.124Z,25.91
2016-07-31T10:29:07.124Z,26.01
2016-07-31T10:30:07.132Z,25.96
2016-07-31T10:31:07.131Z,26.11
2016-07-31T10:32:07.128Z,26.26
2016-07-31T10:33:07.132Z,26.29
2016-07-31T10:34:07.133Z,26.41
2016-07-31T10:35:07.136Z,26.59
2016-07-31T10:36:07.136Z,26.66
2016-07-31T10:37:07.140Z,26.63
2016-07-31T10:38:07.149Z,26.89
2016-07-31T10:39:07.144Z,26.97
2016-07-31T10:40:07.145Z,27.07
2016-07-31T10:41:07.148Z,27.16
2016-07-31T10:42:07.148Z,27.28
2016-07-31T10:43:07.152Z,27.37
2016-07-31T10:44:07.156Z,27.37
2016-07-31T10:45:07.156Z,27.48
2016-07-31T10:46:07.157Z,27.45
2016-07-31T10:47:07.156Z,27.45
2016-07-31T10:48:07.160Z,27.43
2016-07-31T10:49:07.160Z,27.47
2016-07-31T10:50:07.168Z,27.45
2016-07-31T10:51:07.164Z,27.43
2016-07-31T10:52:07.169Z,27.45
2016-07-31T10:53:07.172Z,27.34
2016-07-31T10:54:07.173Z,27.18
2016-07-31T10:55:07.172Z,27.07
2016-07-31T10:56:07.177Z,27.01
2016-07-31T10:57:07.176Z,26.88
2016-07-31T10:58:07.178Z,26.82
2016-07-31T10:59:07.180Z,26.71
2016-07-31T11:00:07.180Z,26.52
2016-07-31T11:01:07.185Z,26.37
2016-07-31T11:02:07.184Z,26.29
2016-07-31T11:03:06.488Z,26.15
2016-07-31T11:04:07.188Z,25.85
2016-07-31T11:05:07.188Z,25.76
2016-07-31T11:06:07.192Z,25.61
2016-07-31T11:07:07.192Z,25.55
2016-07-31T11:08:07.196Z,25.39
2016-07-31T11:09:07.196Z,25.29
2016-07-31T11:10:06.495Z,25.12
2016-07-31T11:11:07.200Z,25
2016-07-31T11:12:07.204Z,24.81
2016-07-31T11:13:07.204Z,24.79
2016-07-31T11:14:07.208Z,24.62
2016-07-31T11:15:07.208Z,24.53
2016-07-31T11:16:07.212Z,24.48
2016-07-31T11:17:07.217Z,24.36
2016-07-31T11:18:07.221Z,24.32
2016-07-31T11:19:07.216Z,24.25
2016-07-31T11:20:07.217Z,24.03
2016-07-31T11:21:07.221Z,24.03
2016-07-31T11:22:06.521Z,23.91
2016-07-31T11:23:07.225Z,23.84
2016-07-31T11:24:06.520Z,23.99
2016-07-31T11:25:07.229Z,23.85
2016-07-31T11:26:07.229Z,23.94
2016-07-31T11:27:07.233Z,23.74
2016-07-31T11:28:06.532Z,23.81
2016-07-31T11:29:07.237Z,23.69
2016-07-31T11:30:07.237Z,23.64
2016-07-31T11:31:07.241Z,23.59
2016-07-31T11:32:07.241Z,23.56
2016-07-31T11:33:07.240Z,23.49
2016-07-31T11:34:07.245Z,23.42
2016-07-31T11:35:07.249Z,23.49
2016-07-31T11:36:07.249Z,23.33
2016-07-31T11:37:06.553Z,23.32
2016-07-31T11:38:07.253Z,23.32
2016-07-31T11:39:07.253Z,23.36
2016-07-31T11:40:07.265Z,23.28
2016-07-31T11:41:07.265Z,23.32
2016-07-31T11:42:07.262Z,23.42
2016-07-31T11:43:07.261Z,23.37
2016-07-31T11:44:07.266Z,23.32
2016-07-31T11:45:07.264Z,23.4
2016-07-31T11:46:07.269Z,23.47
2016-07-31T11:47:07.280Z,23.4
2016-07-31T11:48:07.270Z,23.48
2016-07-31T11:49:07.273Z,23.55
2016-07-31T11:50:07.286Z,23.45
2016-07-31T11:51:07.278Z,23.55
2016-07-31T11:52:07.277Z,23.59
2016-07-31T11:53:07.282Z,23.64
2016-07-31T11:54:07.282Z,23.64
2016-07-31T11:55:07.286Z,23.59
2016-07-31T11:56:07.286Z,23.63
2016-07-31T11:57:07.291Z,23.73
2016-07-31T11:58:06.590Z,23.76
2016-07-31T11:59:07.295Z,23.85
2016-07-31T12:00:07.302Z,23.81
2016-07-31T12:01:07.305Z,23.92
2016-07-31T12:02:06.594Z,24.07
2016-07-31T12:03:07.301Z,24.03
2016-07-31T12:04:07.306Z,24.14
2016-07-31T12:05:07.306Z,24.09
2016-07-31T12:06:07.310Z,24.13
2016-07-31T12:07:07.305Z,24.22
2016-07-31T12:08:07.310Z,24.26
2016-07-31T12:09:07.314Z,24.46
2016-07-31T12:10:07.314Z,24.5
2016-07-31T12:11:07.330Z,24.62
2016-07-31T12:12:07.331Z,24.81
2016-07-31T12:13:07.318Z,24.96
2016-07-31T12:14:07.322Z,25.14
2016-07-31T12:15:07.322Z,25.11
2016-07-31T12:16:07.334Z,25.24
2016-07-31T12:17:07.325Z,25.34
2016-07-31T12:18:07.335Z,25.43
2016-07-31T12:19:07.330Z,25.52
2016-07-31T12:20:07.334Z,25.66
2016-07-31T12:21:06.630Z,25.74
2016-07-31T12:22:07.338Z,25.88
2016-07-31T12:23:07.342Z,25.93
2016-07-31T12:24:07.342Z,26.03
2016-07-31T12:25:07.343Z,26.07
2016-07-31T12:26:07.346Z,26.11
2016-07-31T12:27:07.346Z,26.18
2016-07-31T12:28:07.347Z,26.22
2016-07-31T12:29:07.350Z,26.36
2016-07-31T12:30:07.355Z,26.36
2016-07-31T12:31:07.355Z,26.46
2016-07-31T12:32:06.651Z,26.53
2016-07-31T12:33:07.358Z,26.63
2016-07-31T12:34:07.363Z,26.67
2016-07-31T12:35:07.362Z,26.7
2016-07-31T12:36:07.362Z,26.79
2016-07-31T12:37:07.367Z,26.88
2016-07-31T12:38:07.367Z,26.88
2016-07-31T12:39:07.375Z,26.97
2016-07-31T12:40:07.371Z,27.04
2016-07-31T12:41:07.374Z,27.19
2016-07-31T12:42:07.379Z,27.3
2016-07-31T12:43:07.378Z,27.33
2016-07-31T12:44:07.380Z,27.41
2016-07-31T12:45:07.383Z,27.5
2016-07-31T12:46:07.391Z,27.45
2016-07-31T12:47:07.388Z,27.44
2016-07-31T12:48:07.388Z,27.48
2016-07-31T12:49:07.392Z,27.28
2016-07-31T12:50:07.400Z,27.3
2016-07-31T12:51:07.396Z,27.23
2016-07-31T12:52:07.395Z,27.25
2016-07-31T12:53:07.403Z,27.25
2016-07-31T12:54:07.399Z,27.23
2016-07-31T12:55:07.399Z,27.3
2016-07-31T12:56:07.404Z,27.33
2016-07-31T12:57:07.404Z,27.43
2016-07-31T12:58:07.408Z,27.43